Time;durP1;ratioP1;P1;durP2;ratioP2;P2;SDS_P1;SDS_P2;PMS_P1;PMS_P2;Temp;Humidity;BMP_temperature;BMP_pressure;BME280_temperature;BME280_humidity;BME280_pressure;Samples;Min_cycle;Max_cycle;Signal;HPM_P1;HPM_P2
2022/03/19 00:00:17;;;;;;;14.90;10.20;;;;;;;6.02;73.61;103225.59;5163535;27;20454;-68
2022/03/19 00:02:44;;;;;;;12.27;10.67;;;;;;;6.01;73.77;103215.88;5144868;27;20453;-66
2022/03/19 00:05:11;;;;;;;14.60;10.97;;;;;;;6.03;73.63;103216.72;5159448;27;20535;-66
2022/03/19 00:07:40;;;;;;;15.67;10.87;;;;;;;6.03;73.48;103222.03;5147757;27;20449;-67
2022/03/19 00:10:08;;;;;;;16.97;10.47;;;;;;;5.94;74.06;103219.56;5145291;27;20441;-67
2022/03/19 00:12:35;;;;;;;15.23;10.60;;;;;;;5.90;74.22;103217.88;5163803;27;20504;-66
2022/03/19 00:15:03;;;;;;;14.10;11.50;;;;;;;5.91;74.39;103210.81;5163423;27;20531;-67
2022/03/19 00:17:30;;;;;;;17.77;11.40;;;;;;;5.75;75.04;103216.47;5146600;27;20502;-67
2022/03/19 00:19:57;;;;;;;14.00;12.00;;;;;;;5.76;75.07;103218.22;5148542;27;20483;-67
2022/03/19 00:22:23;;;;;;;17.83;12.40;;;;;;;5.73;74.98;103214.75;5151386;27;20441;-67
2022/03/19 00:24:50;;;;;;;16.43;10.60;;;;;;;5.68;75.08;103222.84;5151866;27;20440;-68
2022/03/19 00:27:17;;;;;;;15.80;10.37;;;;;;;5.66;75.05;103222.00;5164850;27;20468;-68
2022/03/19 00:29:44;;;;;;;15.63;10.80;;;;;;;5.60;74.99;103222.13;5162172;27;20501;-68
2022/03/19 00:32:12;;;;;;;15.20;12.07;;;;;;;5.55;75.24;103216.94;5164338;27;20441;-67
2022/03/19 00:34:38;;;;;;;18.37;12.37;;;;;;;5.54;75.58;103225.81;5154979;27;20489;-67
2022/03/19 00:37:05;;;;;;;18.00;13.00;;;;;;;5.61;75.13;103218.59;5143477;27;20468;-67
2022/03/19 00:39:32;;;;;;;19.90;13.03;;;;;;;5.53;75.07;103217.88;5153856;27;20442;-67
2022/03/19 00:41:59;;;;;;;17.03;12.80;;;;;;;5.55;75.31;103227.53;5143912;27;20498;-66
2022/03/19 00:44:25;;;;;;;15.30;11.83;;;;;;;5.42;75.63;103228.75;5152591;27;20428;-67
2022/03/19 00:46:52;;;;;;;15.77;12.20;;;;;;;5.39;75.67;103220.84;5163854;27;20456;-66
2022/03/19 00:49:20;;;;;;;17.20;11.77;;;;;;;5.39;75.61;103220.84;5159161;27;20466;-66
2022/03/19 00:51:47;;;;;;;16.93;11.90;;;;;;;5.20;76.27;103220.38;5156342;27;20472;-71
2022/03/19 00:54:15;;;;;;;15.93;12.10;;;;;;;5.09;76.90;103220.59;5164590;27;20504;-73
2022/03/19 00:56:42;;;;;;;17.10;12.50;;;;;;;5.07;77.16;103215.31;5164203;27;20432;-73
2022/03/19 00:59:09;;;;;;;17.27;11.73;;;;;;;4.92;77.41;103220.94;5162551;27;20451;-72
2022/03/19 01:01:36;;;;;;;12.40;11.10;;;;;;;5.00;77.37;103219.00;5162400;27;20463;-69
2022/03/19 01:04:02;;;;;;;17.47;12.87;;;;;;;5.02;77.18;103219.00;5144890;27;20449;-72
2022/03/19 01:06:30;;;;;;;15.23;11.93;;;;;;;5.02;77.04;103224.28;5143819;27;20445;-72
2022/03/19 01:08:57;;;;;;;14.70;11.70;;;;;;;4.92;77.32;103226.25;5147585;27;20461;-72
2022/03/19 01:11:24;;;;;;;14.37;12.07;;;;;;;4.96;77.38;103221.75;5143266;27;20429;-72
2022/03/19 01:13:51;;;;;;;13.23;11.80;;;;;;;4.93;77.48;103222.69;5143436;27;20469;-71
2022/03/19 01:16:19;;;;;;;17.27;12.10;;;;;;;4.89;77.44;103221.00;5145391;27;20545;-73
2022/03/19 01:18:45;;;;;;;14.20;11.10;;;;;;;4.75;78.09;103223.03;5157948;27;20468;-73
2022/03/19 01:21:12;;;;;;;17.40;10.80;;;;;;;4.71;78.24;103219.59;5143878;27;20455;-72
2022/03/19 01:23:40;;;;;;;20.53;11.40;;;;;;;4.57;78.94;103214.56;5147299;27;20513;-73
2022/03/19 01:26:07;;;;;;;19.87;10.80;;;;;;;4.62;78.58;103219.78;5143449;27;20424;-73
2022/03/19 01:28:34;;;;;;;13.93;10.50;;;;;;;4.61;78.33;103218.88;5140791;27;21351;-72
2022/03/19 01:31:00;;;;;;;17.33;12.27;;;;;;;4.61;78.41;103213.56;5162349;27;20490;-73
2022/03/19 01:33:27;;;;;;;17.37;11.07;;;;;;;4.68;78.11;103203.75;5156497;27;20456;-74
2022/03/19 01:35:54;;;;;;;15.93;11.70;;;;;;;4.68;78.27;103209.03;5142863;27;20541;-72
2022/03/19 01:38:21;;;;;;;16.40;11.47;;;;;;;4.64;78.45;103208.22;5145298;27;20464;-74
2022/03/19 01:40:49;;;;;;;17.30;11.43;;;;;;;4.78;77.74;103205.31;5159485;27;20440;-72
2022/03/19 01:43:15;;;;;;;19.03;11.63;;;;;;;4.81;77.33;103194.66;5160811;27;20444;-71
2022/03/19 01:45:42;;;;;;;15.50;11.77;;;;;;;4.77;77.19;103198.25;5163783;27;20425;-73
2022/03/19 01:48:09;;;;;;;16.57;11.17;;;;;;;4.79;77.58;103203.53;5160640;27;20445;-74
2022/03/19 01:50:36;;;;;;;13.60;10.70;;;;;;;4.80;77.66;103189.38;5152296;27;20443;-72
2022/03/19 01:53:02;;;;;;;16.33;11.50;;;;;;;4.92;77.19;103193.56;5162971;27;20863;-71
2022/03/19 01:55:29;;;;;;;14.80;10.23;;;;;;;4.82;77.39;103191.06;5149323;27;20518;-73
2022/03/19 01:57:58;;;;;;;17.00;9.87;;;;;;;4.97;76.78;103181.94;5143330;27;20521;-73
2022/03/19 02:00:26;;;;;;;21.30;9.80;;;;;;;4.94;76.65;103184.66;5162776;27;20448;-71
2022/03/19 02:02:54;;;;;;;10.17;8.57;;;;;;;4.90;76.61;103175.91;5153385;27;20484;-72
2022/03/19 02:05:21;;;;;;;15.10;10.57;;;;;;;5.02;76.25;103179.22;5146915;27;20432;-71
2022/03/19 02:07:49;;;;;;;14.27;8.90;;;;;;;5.04;76.07;103172.09;5162087;27;20437;-71
2022/03/19 02:10:17;;;;;;;16.30;9.17;;;;;;;5.08;75.70;103173.75;5162360;27;20471;-70
2022/03/19 02:12:44;;;;;;;16.10;9.43;;;;;;;5.09;74.97;103167.56;5161051;27;20452;-72
2022/03/19 02:15:13;;;;;;;16.20;11.20;;;;;;;5.06;74.73;103178.22;5161566;27;20476;-71
2022/03/19 02:17:40;;;;;;;14.03;9.47;;;;;;;4.99;74.78;103169.53;5161535;27;20454;-71
2022/03/19 02:20:08;;;;;;;19.53;10.23;;;;;;;4.99;74.70;103164.22;5152239;27;20452;-70
2022/03/19 02:22:35;;;;;;;16.10;10.67;;;;;;;4.97;74.44;103162.53;5154280;27;20434;-73
2022/03/19 02:27:48;;;;;;;16.53;8.43;;;;;;;4.89;74.60;103166.19;5144647;27;20453;-73
2022/03/19 02:30:16;;;;;;;11.60;8.70;;;;;;;4.80;74.44;103158.44;5124740;27;20465;-72
2022/03/19 02:32:44;;;;;;;23.80;9.87;;;;;;;4.74;74.73;103158.56;5141147;27;20449;-69
2022/03/19 02:35:11;;;;;;;11.67;9.37;;;;;;;4.74;74.73;103147.97;5142906;27;20480;-73
2022/03/19 02:37:39;;;;;;;11.37;10.03;;;;;;;4.66;74.81;103152.56;5141750;27;21117;-73
2022/03/19 02:40:09;;;;;;;23.63;10.67;;;;;;;4.68;74.87;103156.91;5141379;27;20939;-73
2022/03/19 02:42:36;;;;;;;14.73;9.70;;;;;;;4.62;74.75;103157.03;5141563;27;20429;-72
2022/03/19 02:45:04;;;;;;;20.47;9.63;;;;;;;4.60;75.06;103158.84;5142188;27;20458;-73
2022/03/19 02:47:31;;;;;;;14.83;10.40;;;;;;;4.56;75.19;103161.59;5144773;27;20439;-72
2022/03/19 02:49:58;;;;;;;16.03;9.60;;;;;;;4.50;75.23;103157.28;5147679;27;20440;-73
2022/03/19 02:52:25;;;;;;;14.30;9.10;;;;;;;4.34;75.32;103157.56;5161847;27;20452;-70
2022/03/19 02:54:51;;;;;;;14.47;9.83;;;;;;;4.32;75.60;103153.19;5153832;27;20489;-70
2022/03/19 02:57:19;;;;;;;19.57;10.20;;;;;;;4.38;75.40;103153.09;5141161;27;20480;-72
2022/03/19 02:59:46;;;;;;;16.63;9.80;;;;;;;4.47;74.89;103150.25;5144540;27;20449;-72
2022/03/19 03:02:13;;;;;;;14.77;10.17;;;;;;;4.47;74.69;103157.34;5157549;27;20444;-72
2022/03/19 03:04:40;;;;;;;16.40;9.80;;;;;;;4.46;74.92;103151.16;5131237;27;20467;-72
2022/03/19 03:07:07;;;;;;;15.20;10.53;;;;;;;4.45;74.66;103152.06;5161322;27;20448;-69
2022/03/19 03:09:34;;;;;;;20.47;10.30;;;;;;;4.42;74.59;103144.16;5138155;27;20878;-73
2022/03/19 03:12:02;;;;;;;14.03;10.80;;;;;;;4.38;74.71;103147.78;5142185;27;20445;-73
2022/03/19 03:14:30;;;;;;;14.73;9.90;;;;;;;4.40;74.71;103148.63;5154663;27;20433;-74
2022/03/19 03:17:00;;;;;;;16.93;9.87;;;;;;;4.33;74.49;103144.34;5160148;27;20483;-73
2022/03/19 03:19:26;;;;;;;12.63;8.80;;;;;;;4.19;74.65;103149.03;5155099;27;20447;-74
2022/03/19 03:21:53;;;;;;;17.23;10.10;;;;;;;4.14;75.21;103142.03;5145676;27;20445;-71
2022/03/19 03:24:20;;;;;;;14.07;9.27;;;;;;;4.08;75.34;103136.88;5150573;27;20437;-71
2022/03/19 03:26:46;;;;;;;13.50;8.63;;;;;;;4.07;75.19;103140.41;5166117;27;20448;-73
2022/03/19 03:29:14;;;;;;;12.40;8.00;;;;;;;4.01;75.39;103143.16;5145300;27;21027;-73
2022/03/19 03:31:42;;;;;;;11.33;7.80;;;;;;;4.00;75.85;103138.75;5145261;27;20461;-71
2022/03/19 03:34:09;;;;;;;14.10;9.70;;;;;;;3.97;76.10;103141.47;5146229;27;20444;-72
2022/03/19 03:36:36;;;;;;;13.10;9.37;;;;;;;3.91;76.36;103144.22;5145673;27;20473;-71
2022/03/19 03:39:03;;;;;;;13.20;7.63;;;;;;;4.00;76.72;103137.91;5145531;27;20543;-71
2022/03/19 03:41:30;;;;;;;13.30;7.33;;;;;;;3.84;76.89;103138.16;5162195;27;20449;-72
2022/03/19 03:43:56;;;;;;;16.30;8.70;;;;;;;3.81;77.26;103142.63;5145378;27;20457;-71
2022/03/19 03:46:23;;;;;;;10.27;8.10;;;;;;;3.75;77.50;103135.69;5145726;27;20453;-74
2022/03/19 03:48:51;;;;;;;14.43;8.57;;;;;;;3.74;77.47;103137.44;5158430;27;20904;-74
2022/03/19 03:51:18;;;;;;;17.67;8.47;;;;;;;3.77;77.59;103129.44;5157146;27;20444;-73
2022/03/19 03:53:46;;;;;;;11.43;7.33;;;;;;;3.79;77.34;103142.66;5159683;27;20449;-73
2022/03/19 03:56:13;;;;;;;12.03;7.53;;;;;;;3.79;77.43;103141.78;5145001;27;20475;-72
2022/03/19 03:58:40;;;;;;;13.53;6.93;;;;;;;3.79;77.44;103147.09;5144560;27;20441;-70
2022/03/19 04:01:07;;;;;;;12.80;7.23;;;;;;;3.74;77.38;103139.22;5150923;27;20436;-72
2022/03/19 04:03:34;;;;;;;15.40;8.10;;;;;;;3.79;77.55;103140.00;5162844;27;20449;-72
2022/03/19 04:06:02;;;;;;;14.63;7.03;;;;;;;3.74;77.57;103137.44;5156913;27;20434;-72
2022/03/19 04:08:29;;;;;;;15.57;7.97;;;;;;;3.69;77.90;103141.06;5148374;27;20451;-72
2022/03/19 04:10:56;;;;;;;12.70;7.90;;;;;;;3.64;78.46;103138.47;5155650;27;20849;-73
2022/03/19 04:13:23;;;;;;;9.60;6.80;;;;;;;3.67;78.90;103129.63;5158623;27;20505;-72
2022/03/19 04:15:50;;;;;;;14.90;8.10;;;;;;;3.81;78.44;103142.63;5144471;27;20484;-71
2022/03/19 04:18:17;;;;;;;13.53;7.40;;;;;;;3.76;78.73;103132.97;5152353;27;20453;-73
2022/03/19 04:20:43;;;;;;;10.70;6.73;;;;;;;3.74;79.27;103125.97;5155126;27;20451;-74
2022/03/19 04:23:11;;;;;;;17.97;8.70;;;;;;;3.85;78.96;103129.31;5144543;27;20512;-71
2022/03/19 04:25:38;;;;;;;16.33;8.13;;;;;;;3.83;79.02;103135.53;5154405;27;20556;-72
2022/03/19 04:28:05;;;;;;;17.83;7.07;;;;;;;3.79;79.51;103128.56;5156396;27;20477;-73
2022/03/19 04:30:32;;;;;;;13.70;7.90;;;;;;;3.90;79.76;103121.28;5140588;27;20426;-74
2022/03/19 04:33:00;;;;;;;11.93;8.60;;;;;;;4.01;79.32;103129.03;5159755;27;20896;-71
2022/03/19 04:38:15;;;;;;;13.27;8.07;;;;;;;3.99;79.82;103125.56;5153723;27;20459;-71
2022/03/19 04:40:43;;;;;;;20.43;9.80;;;;;;;4.01;80.07;103124.66;5150605;27;20429;-73
2022/03/19 04:43:11;;;;;;;25.40;10.90;;;;;;;3.99;80.08;103126.41;5145104;27;20478;-71
2022/03/19 04:45:38;;;;;;;18.83;9.67;;;;;;;4.01;80.39;103115.81;5146584;27;20823;-72
2022/03/19 04:48:06;;;;;;;18.87;9.67;;;;;;;4.11;80.32;103120.94;5143107;27;20521;-71
2022/03/19 04:50:33;;;;;;;14.50;10.07;;;;;;;4.22;79.95;103128.66;5144005;27;20434;-70
2022/03/19 04:53:00;;;;;;;20.33;9.70;;;;;;;4.10;80.76;103126.25;5160561;27;20448;-72
2022/03/19 04:55:28;;;;;;;19.23;9.97;;;;;;;4.31;80.68;103130.28;5159394;27;20473;-71
2022/03/19 04:57:55;;;;;;;22.20;9.80;;;;;;;4.29;79.95;103125.00;5158115;27;20440;-71
2022/03/19 05:00:22;;;;;;;23.20;9.97;;;;;;;4.37;80.10;103135.44;5153081;27;20465;-72
2022/03/19 05:02:50;;;;;;;20.13;9.90;;;;;;;4.36;80.40;103125.75;5162568;27;20515;-72
2022/03/19 05:05:18;;;;;;;14.93;10.80;;;;;;;4.24;80.50;103142.75;5146868;27;20460;-72
2022/03/19 05:07:45;;;;;;;23.00;9.90;;;;;;;4.31;80.33;103141.72;5135811;27;20461;-71
2022/03/19 05:12:57;;;;;;;25.03;10.10;;;;;;;4.32;79.94;103142.59;5164452;27;20411;-73
2022/03/19 05:15:24;;;;;;;18.00;9.70;;;;;;;4.37;79.54;103148.69;5164194;27;20448;-70
2022/03/19 05:17:50;;;;;;;18.20;10.13;;;;;;;4.42;79.71;103143.31;5152544;27;20924;-71
2022/03/19 05:20:17;;;;;;;24.97;11.67;;;;;;;4.41;79.47;103147.75;5160805;27;21258;-72
2022/03/19 05:22:44;;;;;;;22.63;10.97;;;;;;;4.42;79.27;103146.81;5163195;27;20441;-72
2022/03/19 05:25:10;;;;;;;17.13;9.70;;;;;;;4.44;79.05;103142.34;5162241;27;20462;-70
2022/03/19 05:27:38;;;;;;;19.57;10.40;;;;;;;4.42;79.25;103143.31;5160347;27;20424;-71
2022/03/19 05:30:07;;;;;;;17.33;9.60;;;;;;;4.41;79.13;103145.09;5155213;27;20479;-72
2022/03/19 05:32:34;;;;;;;23.67;9.90;;;;;;;4.41;79.06;103145.09;5162566;27;20513;-73
2022/03/19 05:35:02;;;;;;;23.60;10.33;;;;;;;4.39;79.29;103140.72;5142194;27;20524;-73
2022/03/19 05:37:28;;;;;;;28.70;12.40;;;;;;;4.30;79.39;103149.69;5161310;27;20841;-74
2022/03/19 05:39:55;;;;;;;17.07;9.70;;;;;;;4.33;79.35;103144.34;5150274;27;20501;-74
2022/03/19 05:42:22;;;;;;;22.93;10.50;;;;;;;4.38;79.02;103152.22;5160416;27;20824;-71
2022/03/19 05:44:49;;;;;;;20.83;9.93;;;;;;;4.42;78.52;103146.81;5161522;27;20440;-73
2022/03/19 05:47:17;;;;;;;20.97;11.00;;;;;;;4.44;78.33;103152.09;5163528;27;20432;-74
2022/03/19 05:49:44;;;;;;;18.60;10.33;;;;;;;4.46;77.57;103144.97;5150509;27;20950;-74
2022/03/19 05:52:11;;;;;;;17.90;9.10;;;;;;;4.53;77.30;103151.91;5162210;27;20561;-74
2022/03/19 05:54:37;;;;;;;19.80;9.20;;;;;;;4.68;76.98;103158.69;5163225;27;20444;-72
2022/03/19 05:57:04;;;;;;;23.80;10.17;;;;;;;4.76;76.43;103154.09;5149723;27;20511;-65
2022/03/19 05:59:31;;;;;;;16.43;9.07;;;;;;;4.79;76.20;103146.09;5153875;27;20444;-65
2022/03/19 06:01:58;;;;;;;19.93;10.43;;;;;;;4.85;75.75;103156.56;5163410;27;20425;-65
2022/03/19 06:04:26;;;;;;;13.80;7.93;;;;;;;5.02;75.08;103158.00;5151608;27;20453;-65
2022/03/19 06:06:53;;;;;;;19.23;9.10;;;;;;;5.20;74.13;103157.56;5142656;27;20429;-65
2022/03/19 06:09:19;;;;;;;16.90;8.90;;;;;;;6.34;70.30;103164.59;5150536;27;20456;-65
2022/03/19 06:11:46;;;;;;;16.20;8.50;;;;;;;7.88;64.18;103166.16;5163338;27;20853;-65
2022/03/19 06:14:13;;;;;;;16.67;7.37;;;;;;;8.59;60.52;103165.50;5162922;27;20444;-65
2022/03/19 06:16:40;;;;;;;16.37;8.60;;;;;;;9.34;57.63;103164.44;5162771;27;20901;-65
2022/03/19 06:19:06;;;;;;;10.10;6.17;;;;;;;9.72;55.94;103157.56;5148949;27;20453;-64
2022/03/19 06:21:34;;;;;;;12.33;6.07;;;;;;;10.68;53.07;103159.66;5153685;27;20842;-65
2022/03/19 06:24:03;;;;;;;8.57;6.40;;;;;;;11.41;51.01;103157.16;5157962;27;20442;-65
2022/03/19 06:26:30;;;;;;;11.90;6.10;;;;;;;12.13;48.62;103160.72;5141847;27;20969;-66
2022/03/19 06:28:56;;;;;;;16.70;6.77;;;;;;;12.60;47.03;103160.06;5148199;27;20619;-66
2022/03/19 06:31:23;;;;;;;10.03;5.70;;;;;;;12.58;46.00;103161.09;5162839;27;20437;-65
2022/03/19 06:33:50;;;;;;;13.57;5.10;;;;;;;13.15;44.23;103157.97;5151689;27;20975;-67
2022/03/19 06:39:03;;;;;;;10.17;5.40;;;;;;;14.50;41.04;103158.13;5129259;27;20441;-67
2022/03/19 06:41:30;;;;;;;13.83;6.13;;;;;;;14.19;41.53;103161.81;5129136;27;20430;-67
2022/03/19 06:43:57;;;;;;;12.90;6.00;;;;;;;14.11;41.43;103159.59;5128629;27;20505;-67
2022/03/19 06:46:24;;;;;;;9.90;5.13;;;;;;;14.21;41.10;103159.03;5127869;27;20445;-68
2022/03/19 06:48:51;;;;;;;13.60;5.40;;;;;;;13.93;41.39;103160.69;5123692;27;20450;-67
2022/03/19 06:51:18;;;;;;;10.10;5.03;;;;;;;13.61;42.15;103158.09;5130012;28;20498;-67
2022/03/19 06:53:45;;;;;;;8.70;4.50;;;;;;;14.65;39.64;103160.84;5139449;27;20497;-66
2022/03/19 06:56:14;;;;;;;11.03;5.30;;;;;;;14.18;40.03;103160.06;5141888;27;21090;-66
2022/03/19 06:58:41;;;;;;;13.70;5.07;;;;;;;13.59;41.21;103156.44;5156977;27;20554;-67
2022/03/19 07:01:09;;;;;;;12.10;5.43;;;;;;;13.09;42.60;103163.69;5162817;27;20428;-65
2022/03/19 07:03:36;;;;;;;15.50;5.27;;;;;;;13.99;40.90;103152.28;5140655;27;20520;-65
2022/03/19 07:06:03;;;;;;;8.10;4.27;;;;;;;14.15;40.38;103157.59;5142166;28;20516;-66
2022/03/19 07:08:32;;;;;;;8.27;4.13;;;;;;;13.88;41.21;103165.47;5145855;27;20540;-66
2022/03/19 07:10:59;;;;;;;12.07;5.00;;;;;;;13.96;40.33;103146.19;5156901;27;20455;-66
2022/03/19 07:13:27;;;;;;;8.20;4.03;;;;;;;13.45;41.23;103154.53;5156511;27;20470;-65
2022/03/19 07:15:53;;;;;;;13.40;5.10;;;;;;;14.23;39.65;103151.72;5162036;27;20428;-66
2022/03/19 07:18:20;;;;;;;12.53;5.17;;;;;;;14.26;40.01;103152.41;5146066;27;20449;-66
2022/03/19 07:20:47;;;;;;;13.87;5.13;;;;;;;13.19;42.16;103152.34;5141411;28;20806;-66
2022/03/19 07:23:13;;;;;;;12.00;4.33;;;;;;;14.15;39.50;103157.59;5140950;27;20553;-66
2022/03/19 07:25:41;;;;;;;10.87;5.50;;;;;;;14.52;38.83;103158.03;5140463;27;20511;-65
2022/03/19 07:28:09;;;;;;;13.50;4.93;;;;;;;14.80;38.56;103151.78;5131084;27;20484;-66
2022/03/19 07:30:37;;;;;;;7.00;4.30;;;;;;;14.26;39.46;103147.03;5161531;27;20420;-66
2022/03/19 07:33:05;;;;;;;10.93;4.37;;;;;;;15.10;38.80;103155.31;5140416;28;20433;-66
2022/03/19 07:35:31;;;;;;;10.90;4.67;;;;;;;14.02;39.89;103153.91;5140612;28;20429;-65
2022/03/19 07:37:59;;;;;;;6.40;4.20;;;;;;;14.85;38.28;103146.97;5140610;28;20476;-66
2022/03/19 07:43:12;;;;;;;12.10;5.10;;;;;;;14.89;37.91;103144.97;5120461;28;20429;-66
2022/03/19 07:45:41;;;;;;;9.17;3.97;;;;;;;14.66;37.83;103144.59;5143934;27;20448;-66
2022/03/19 07:48:08;;;;;;;9.90;4.37;;;;;;;14.57;38.81;103139.75;5160714;27;21038;-67
2022/03/19 07:50:35;;;;;;;12.00;4.00;;;;;;;14.18;39.46;103137.69;5162100;27;20452;-67
2022/03/19 07:53:02;;;;;;;15.90;4.70;;;;;;;15.36;37.46;103132.94;5161720;27;20463;-68
2022/03/19 07:55:29;;;;;;;12.07;4.60;;;;;;;15.61;36.29;103137.56;5147118;27;20441;-67
2022/03/19 07:57:56;;;;;;;15.93;5.20;;;;;;;15.61;35.83;103128.59;5140935;28;20516;-67
2022/03/19 08:00:22;;;;;;;8.70;3.90;;;;;;;15.74;36.34;103131.34;5126413;28;20457;-67
2022/03/19 08:02:51;;;;;;;7.93;3.57;;;;;;;16.53;34.76;103127.66;5145216;27;20822;-68
2022/03/19 08:05:18;;;;;;;9.80;3.60;;;;;;;15.10;36.38;103133.78;5142680;27;20445;-68
2022/03/19 08:07:44;;;;;;;7.53;3.97;;;;;;;16.28;35.40;103122.25;5157481;27;20991;-68
2022/03/19 08:10:12;;;;;;;8.17;4.10;;;;;;;17.28;33.14;103117.78;5137653;27;20457;-68
2022/03/19 08:12:42;;;;;;;9.20;4.70;;;;;;;15.92;34.64;103119.34;5146343;27;20488;-68
2022/03/19 08:15:11;;;;;;;11.30;4.03;;;;;;;16.13;34.33;103116.97;5155551;27;20444;-67
2022/03/19 08:17:38;;;;;;;8.00;3.57;;;;;;;17.13;32.79;103117.97;5132959;27;20540;-66
2022/03/19 08:20:07;;;;;;;9.50;4.03;;;;;;;16.12;33.99;103111.69;5134573;27;20543;-67
2022/03/19 08:22:34;;;;;;;9.13;3.50;;;;;;;15.89;34.06;103115.97;5137943;27;20442;-67
2022/03/19 08:25:01;;;;;;;13.27;4.20;;;;;;;16.59;33.61;103117.41;5142418;27;20464;-67
2022/03/19 08:27:28;;;;;;;10.30;3.70;;;;;;;16.10;33.93;103119.88;5144314;27;20529;-67
2022/03/19 08:29:55;;;;;;;10.27;4.00;;;;;;;15.32;35.55;103117.06;5127858;27;20494;-67
2022/03/19 08:32:22;;;;;;;9.73;3.50;;;;;;;15.70;34.70;103108.25;5125701;27;20490;-67
2022/03/19 08:34:49;;;;;;;9.53;3.90;;;;;;;15.29;35.24;103117.25;5134186;27;20521;-67
2022/03/19 08:37:17;;;;;;;9.90;3.87;;;;;;;14.79;35.93;103111.50;5137830;27;20473;-68
2022/03/19 08:42:27;;;;;;;10.80;4.07;;;;;;;14.99;34.53;103111.06;5114302;27;21269;-67
2022/03/19 08:44:56;;;;;;;5.77;3.10;;;;;;;14.98;35.09;103117.44;5130783;27;20882;-67
2022/03/19 08:47:22;;;;;;;6.67;2.97;;;;;;;15.33;34.29;103106.19;5132791;27;20506;-67
2022/03/19 08:49:49;;;;;;;7.83;3.40;;;;;;;14.69;35.33;103109.41;5136189;27;20475;-67
2022/03/19 08:52:17;;;;;;;10.60;3.87;;;;;;;14.67;35.62;103105.09;5159982;27;20491;-67
2022/03/19 08:54:44;;;;;;;8.47;3.73;;;;;;;15.65;34.64;103096.91;5137755;27;20500;-67
2022/03/19 08:57:11;;;;;;;8.63;3.73;;;;;;;15.89;33.93;103105.19;5129468;27;20480;-67
2022/03/19 08:59:38;;;;;;;7.20;3.03;;;;;;;16.06;33.80;103098.59;5141872;27;20437;-67
2022/03/19 09:02:05;;;;;;;8.30;2.77;;;;;;;15.50;33.50;103096.09;5142361;27;20429;-67
2022/03/19 09:04:33;;;;;;;6.43;2.80;;;;;;;15.79;34.02;103097.72;5134150;27;20568;-68
2022/03/19 09:06:59;;;;;;;9.93;4.00;;;;;;;14.73;35.18;103093.06;5150051;27;20450;-67
2022/03/19 09:09:27;;;;;;;9.20;3.27;;;;;;;15.34;34.25;103075.56;5138342;27;20574;-66
2022/03/19 09:11:54;;;;;;;5.90;2.90;;;;;;;14.92;33.92;103087.34;5154229;27;20919;-66
2022/03/19 09:14:22;;;;;;;11.73;3.57;;;;;;;14.87;34.26;103080.41;5129017;27;20454;-66
2022/03/19 09:16:49;;;;;;;8.87;3.20;;;;;;;15.02;33.64;103078.56;5134318;27;20469;-66
2022/03/19 09:19:15;;;;;;;7.13;2.80;;;;;;;14.20;34.28;103074.75;5133507;27;20797;-67
2022/03/19 09:21:42;;;;;;;8.70;3.30;;;;;;;14.10;35.36;103082.53;5132391;27;20985;-67
2022/03/19 09:24:10;;;;;;;5.00;3.00;;;;;;;14.88;34.20;103055.22;5151024;27;20457;-68
2022/03/19 09:26:38;;;;;;;5.80;3.07;;;;;;;14.16;35.72;103075.03;5144863;27;20441;-66
2022/03/19 09:29:04;;;;;;;7.10;3.33;;;;;;;13.28;36.30;103080.22;5131137;27;20481;-66
2022/03/19 09:31:31;;;;;;;8.83;3.37;;;;;;;14.18;35.42;103067.72;5125369;27;20446;-66
2022/03/19 09:33:58;;;;;;;11.80;3.13;;;;;;;14.90;35.04;103062.34;5121684;27;20474;-66
2022/03/19 09:36:25;;;;;;;7.77;3.40;;;;;;;14.78;33.90;103066.69;5137150;27;20445;-66
2022/03/19 09:38:52;;;;;;;6.80;3.20;;;;;;;14.07;34.96;103060.34;5141441;27;21090;-65
2022/03/19 09:41:18;;;;;;;7.77;2.70;;;;;;;14.42;34.47;103062.66;5139677;27;20506;-67
2022/03/19 09:43:47;;;;;;;6.90;2.77;;;;;;;15.24;34.44;103044.78;5141562;27;20425;-66
2022/03/19 09:46:13;;;;;;;7.63;2.87;;;;;;;15.27;33.67;103054.50;5141706;27;20466;-66
2022/03/19 09:48:40;;;;;;;9.27;3.10;;;;;;;15.29;33.00;103042.66;5140824;27;20449;-66
2022/03/19 09:51:09;;;;;;;8.70;3.20;;;;;;;14.60;34.00;103063.31;5142019;27;20452;-66
2022/03/19 09:53:37;;;;;;;6.53;2.40;;;;;;;14.68;32.71;103058.31;5143684;27;20474;-68
2022/03/19 09:56:04;;;;;;;7.40;2.63;;;;;;;14.91;32.50;103046.06;5147975;27;20467;-67
2022/03/19 09:58:33;;;;;;;6.30;2.80;;;;;;;15.42;31.79;103045.41;5144994;27;20486;-68
2022/03/19 10:01:05;;;;;;;6.13;2.60;;;;;;;15.84;29.89;103035.34;5161494;27;20452;-68
2022/03/19 10:03:34;;;;;;;5.13;2.60;;;;;;;15.15;31.72;103031.94;5159026;27;20543;-68
2022/03/19 10:08:54;;;;;;;3.10;2.23;;;;;;;14.87;30.72;103031.91;5156783;27;20622;-67
2022/03/19 10:11:21;;;;;;;3.63;2.00;;;;;;;14.26;32.23;103042.06;5140859;27;20429;-67
2022/03/19 10:13:50;;;;;;;7.03;2.63;;;;;;;14.86;31.60;103021.28;5140777;27;20806;-67
2022/03/19 10:16:24;;;;;;;4.83;2.60;;;;;;;14.56;32.31;103027.63;5140555;27;20516;-68
2022/03/19 10:18:58;;;;;;;5.77;3.17;;;;;;;14.59;32.43;103019.41;5140728;27;20946;-67
2022/03/19 10:21:26;;;;;;;4.73;2.20;;;;;;;14.79;30.89;103017.22;5140701;27;20432;-67
2022/03/19 10:23:53;;;;;;;7.20;2.03;;;;;;;14.72;31.80;103011.41;5159943;27;20437;-67
2022/03/19 10:26:27;;;;;;;6.30;2.80;;;;;;;14.73;33.53;103005.03;5155875;27;20449;-67
2022/03/19 10:28:58;;;;;;;5.13;2.30;;;;;;;14.95;32.43;103003.63;5160336;27;20543;-68
2022/03/19 10:31:34;;;;;;;3.77;2.00;;;;;;;14.28;32.11;103013.25;5130239;27;20445;-66
